sensor_id;sensor_type;location;lat;lon;timestamp;temperature;humidity
48836;DHT22;62581;47.342;7.908;2023-08-01T00:00:01;20.30;99.90
48836;DHT22;62581;47.342;7.908;2023-08-01T00:02:29;20.30;99.90
48836;DHT22;62581;47.342;7.908;2023-08-01T00:04:56;20.30;99.90
48836;DHT22;62581;47.342;7.908;2023-08-01T00:07:23;20.30;99.90
48836;DHT22;62581;47.342;7.908;2023-08-01T00:09:50;20.30;99.90
48836;DHT22;62581;47.342;7.908;2023-08-01T00:12:17;20.30;99.90
48836;DHT22;62581;47.342;7.908;2023-08-01T00:14:43;20.40;99.90
48836;DHT22;62581;47.342;7.908;2023-08-01T00:17:10;20.40;99.90
48836;DHT22;62581;47.342;7.908;2023-08-01T00:19:38;20.50;99.90
48836;DHT22;62581;47.342;7.908;2023-08-01T00:22:05;20.50;99.90
48836;DHT22;62581;47.342;7.908;2023-08-01T00:24:31;20.50;99.90
48836;DHT22;62581;47.342;7.908;2023-08-01T00:26:58;20.50;99.90
48836;DHT22;62581;47.342;7.908;2023-08-01T00:29:25;20.50;99.90
48836;DHT22;62581;47.342;7.908;2023-08-01T00:31:52;20.60;99.90
48836;DHT22;62581;47.342;7.908;2023-08-01T00:34:18;20.60;99.90
48836;DHT22;62581;47.342;7.908;2023-08-01T00:36:46;20.60;99.90
48836;DHT22;62581;47.342;7.908;2023-08-01T00:39:14;20.60;99.90
48836;DHT22;62581;47.342;7.908;2023-08-01T00:41:41;20.50;99.90
48836;DHT22;62581;47.342;7.908;2023-08-01T00:44:08;20.60;99.90
48836;DHT22;62581;47.342;7.908;2023-08-01T00:46:34;20.60;99.90
48836;DHT22;62581;47.342;7.908;2023-08-01T00:49:02;20.70;99.90
48836;DHT22;62581;47.342;7.908;2023-08-01T00:51:29;20.70;99.90
48836;DHT22;62581;47.342;7.908;2023-08-01T00:53:58;20.70;99.90
48836;DHT22;62581;47.342;7.908;2023-08-01T00:56:25;20.70;99.90
48836;DHT22;62581;47.342;7.908;2023-08-01T00:58:52;20.70;99.90
48836;DHT22;62581;47.342;7.908;2023-08-01T01:01:18;20.70;99.90
48836;DHT22;62581;47.342;7.908;2023-08-01T01:03:45;20.60;99.90
48836;DHT22;62581;47.342;7.908;2023-08-01T01:06:13;20.60;99.90
48836;DHT22;62581;47.342;7.908;2023-08-01T01:08:42;20.70;99.90
48836;DHT22;62581;47.342;7.908;2023-08-01T01:11:10;20.70;99.90
48836;DHT22;62581;47.342;7.908;2023-08-01T01:13:37;20.70;99.90
48836;DHT22;62581;47.342;7.908;2023-08-01T01:16:04;20.70;99.90
48836;DHT22;62581;47.342;7.908;2023-08-01T01:18:30;20.60;99.90
48836;DHT22;62581;47.342;7.908;2023-08-01T01:20:58;20.60;99.90
48836;DHT22;62581;47.342;7.908;2023-08-01T01:23:25;20.70;99.90
48836;DHT22;62581;47.342;7.908;2023-08-01T01:25:53;20.70;99.90
48836;DHT22;62581;47.342;7.908;2023-08-01T01:28:20;20.60;99.90
48836;DHT22;62581;47.342;7.908;2023-08-01T01:30:47;20.70;99.90
48836;DHT22;62581;47.342;7.908;2023-08-01T01:33:14;20.70;99.90
48836;DHT22;62581;47.342;7.908;2023-08-01T01:35:41;20.80;99.90
48836;DHT22;62581;47.342;7.908;2023-08-01T01:38:09;20.80;99.90
48836;DHT22;62581;47.342;7.908;2023-08-01T01:40:36;20.70;99.90
48836;DHT22;62581;47.342;7.908;2023-08-01T01:43:03;20.70;99.90
48836;DHT22;62581;47.342;7.908;2023-08-01T01:45:29;20.70;99.90
48836;DHT22;62581;47.342;7.908;2023-08-01T01:47:56;20.80;99.90
48836;DHT22;62581;47.342;7.908;2023-08-01T01:50:23;20.70;99.90
48836;DHT22;62581;47.342;7.908;2023-08-01T01:52:49;20.70;99.90
48836;DHT22;62581;47.342;7.908;2023-08-01T01:55:17;20.70;99.90
48836;DHT22;62581;47.342;7.908;2023-08-01T01:57:44;20.60;99.90
48836;DHT22;62581;47.342;7.908;2023-08-01T02:00:11;20.60;99.90
48836;DHT22;62581;47.342;7.908;2023-08-01T02:02:38;20.60;99.90
48836;DHT22;62581;47.342;7.908;2023-08-01T02:05:05;20.60;99.90
48836;DHT22;62581;47.342;7.908;2023-08-01T02:07:32;20.60;99.90
48836;DHT22;62581;47.342;7.908;2023-08-01T02:09:59;20.60;99.90
48836;DHT22;62581;47.342;7.908;2023-08-01T02:12:27;20.60;99.90
48836;DHT22;62581;47.342;7.908;2023-08-01T02:14:56;20.60;99.90
48836;DHT22;62581;47.342;7.908;2023-08-01T02:17:23;20.60;99.90
48836;DHT22;62581;47.342;7.908;2023-08-01T02:19:50;20.60;99.90
48836;DHT22;62581;47.342;7.908;2023-08-01T02:22:17;20.60;99.90
48836;DHT22;62581;47.342;7.908;2023-08-01T02:24:43;20.60;99.90
48836;DHT22;62581;47.342;7.908;2023-08-01T02:27:10;20.70;99.90
48836;DHT22;62581;47.342;7.908;2023-08-01T02:29:38;20.70;99.90
48836;DHT22;62581;47.342;7.908;2023-08-01T02:32:05;20.70;99.90
48836;DHT22;62581;47.342;7.908;2023-08-01T02:34:32;20.70;99.90
48836;DHT22;62581;47.342;7.908;2023-08-01T02:36:59;20.70;99.90
48836;DHT22;62581;47.342;7.908;2023-08-01T02:39:25;20.80;99.90
48836;DHT22;62581;47.342;7.908;2023-08-01T02:41:52;20.90;99.90
48836;DHT22;62581;47.342;7.908;2023-08-01T02:44:19;21.00;99.90
48836;DHT22;62581;47.342;7.908;2023-08-01T02:46:47;21.10;99.90
48836;DHT22;62581;47.342;7.908;2023-08-01T02:49:13;21.00;99.90
48836;DHT22;62581;47.342;7.908;2023-08-01T02:51:40;20.90;99.90
48836;DHT22;62581;47.342;7.908;2023-08-01T02:54:07;20.90;99.90
48836;DHT22;62581;47.342;7.908;2023-08-01T02:56:34;20.90;99.90
48836;DHT22;62581;47.342;7.908;2023-08-01T02:59:00;20.90;99.90
48836;DHT22;62581;47.342;7.908;2023-08-01T03:01:28;20.90;99.90
48836;DHT22;62581;47.342;7.908;2023-08-01T03:03:56;21.00;99.90
48836;DHT22;62581;47.342;7.908;2023-08-01T03:06:24;21.00;99.90
48836;DHT22;62581;47.342;7.908;2023-08-01T03:08:51;21.00;99.90
48836;DHT22;62581;47.342;7.908;2023-08-01T03:11:18;21.00;99.90
48836;DHT22;62581;47.342;7.908;2023-08-01T03:13:45;20.90;99.90
48836;DHT22;62581;47.342;7.908;2023-08-01T03:16:11;20.90;99.90
48836;DHT22;62581;47.342;7.908;2023-08-01T03:18:38;21.00;99.90
48836;DHT22;62581;47.342;7.908;2023-08-01T03:21:06;21.00;99.90
48836;DHT22;62581;47.342;7.908;2023-08-01T03:23:33;20.90;99.90
48836;DHT22;62581;47.342;7.908;2023-08-01T03:26:00;20.90;99.90
48836;DHT22;62581;47.342;7.908;2023-08-01T03:28:26;20.90;99.90
48836;DHT22;62581;47.342;7.908;2023-08-01T03:30:53;20.80;99.90
48836;DHT22;62581;47.342;7.908;2023-08-01T03:33:20;20.80;99.90
48836;DHT22;62581;47.342;7.908;2023-08-01T03:35:47;20.60;99.90
48836;DHT22;62581;47.342;7.908;2023-08-01T03:38:15;20.60;99.90
48836;DHT22;62581;47.342;7.908;2023-08-01T03:40:42;20.60;99.90
48836;DHT22;62581;47.342;7.908;2023-08-01T03:43:08;20.50;99.90
48836;DHT22;62581;47.342;7.908;2023-08-01T03:45:35;20.40;99.90
48836;DHT22;62581;47.342;7.908;2023-08-01T03:48:02;20.40;99.90
48836;DHT22;62581;47.342;7.908;2023-08-01T03:50:29;20.50;99.90
48836;DHT22;62581;47.342;7.908;2023-08-01T03:52:56;20.50;99.90
48836;DHT22;62581;47.342;7.908;2023-08-01T03:55:24;20.50;99.90
48836;DHT22;62581;47.342;7.908;2023-08-01T03:57:50;20.60;99.90
48836;DHT22;62581;47.342;7.908;2023-08-01T04:00:17;20.60;99.90
48836;DHT22;62581;47.342;7.908;2023-08-01T04:02:44;20.60;99.90
48836;DHT22;62581;47.342;7.908;2023-08-01T04:05:11;20.60;99.90
48836;DHT22;62581;47.342;7.908;2023-08-01T04:07:38;20.60;99.90
48836;DHT22;62581;47.342;7.908;2023-08-01T04:10:05;20.80;99.90
48836;DHT22;62581;47.342;7.908;2023-08-01T04:12:33;20.80;99.90
48836;DHT22;62581;47.342;7.908;2023-08-01T04:15:00;20.90;99.90
48836;DHT22;62581;47.342;7.908;2023-08-01T04:17:27;20.90;99.90
48836;DHT22;62581;47.342;7.908;2023-08-01T04:19:55;20.90;99.90
48836;DHT22;62581;47.342;7.908;2023-08-01T04:22:21;20.90;99.90
48836;DHT22;62581;47.342;7.908;2023-08-01T04:24:48;20.80;99.90
48836;DHT22;62581;47.342;7.908;2023-08-01T04:27:15;20.80;99.90
48836;DHT22;62581;47.342;7.908;2023-08-01T04:29:43;20.70;99.90
48836;DHT22;62581;47.342;7.908;2023-08-01T04:32:10;20.70;99.90
48836;DHT22;62581;47.342;7.908;2023-08-01T04:34:39;20.50;99.90
48836;DHT22;62581;47.342;7.908;2023-08-01T04:37:06;20.40;99.90
48836;DHT22;62581;47.342;7.908;2023-08-01T04:39:33;20.30;99.90
48836;DHT22;62581;47.342;7.908;2023-08-01T04:41:59;20.20;99.90
48836;DHT22;62581;47.342;7.908;2023-08-01T04:44:26;20.20;99.90
48836;DHT22;62581;47.342;7.908;2023-08-01T04:46:54;20.10;99.90
48836;DHT22;62581;47.342;7.908;2023-08-01T04:49:21;20.00;99.90
48836;DHT22;62581;47.342;7.908;2023-08-01T04:51:49;20.00;99.90
48836;DHT22;62581;47.342;7.908;2023-08-01T04:54:16;20.00;99.90
48836;DHT22;62581;47.342;7.908;2023-08-01T04:56:43;20.00;99.90
48836;DHT22;62581;47.342;7.908;2023-08-01T04:59:10;19.90;99.90
48836;DHT22;62581;47.342;7.908;2023-08-01T05:01:36;19.90;99.90
48836;DHT22;62581;47.342;7.908;2023-08-01T05:04:04;19.80;99.90
48836;DHT22;62581;47.342;7.908;2023-08-01T05:06:31;19.70;99.90
48836;DHT22;62581;47.342;7.908;2023-08-01T05:08:58;19.70;99.90
48836;DHT22;62581;47.342;7.908;2023-08-01T05:11:24;19.70;99.90
48836;DHT22;62581;47.342;7.908;2023-08-01T05:13:51;19.70;99.90
48836;DHT22;62581;47.342;7.908;2023-08-01T05:16:18;19.70;99.90
48836;DHT22;62581;47.342;7.908;2023-08-01T05:18:45;19.70;99.90
48836;DHT22;62581;47.342;7.908;2023-08-01T05:21:13;19.80;99.90
48836;DHT22;62581;47.342;7.908;2023-08-01T05:23:39;19.80;99.90
48836;DHT22;62581;47.342;7.908;2023-08-01T05:26:06;19.90;99.90
48836;DHT22;62581;47.342;7.908;2023-08-01T05:28:33;20.00;99.90
48836;DHT22;62581;47.342;7.908;2023-08-01T05:31:00;20.00;99.90
48836;DHT22;62581;47.342;7.908;2023-08-01T05:33:26;20.00;99.90
48836;DHT22;62581;47.342;7.908;2023-08-01T05:35:53;19.90;99.90
48836;DHT22;62581;47.342;7.908;2023-08-01T05:38:21;20.00;99.90
48836;DHT22;62581;47.342;7.908;2023-08-01T05:40:48;20.00;99.90
48836;DHT22;62581;47.342;7.908;2023-08-01T05:43:15;20.00;99.90
48836;DHT22;62581;47.342;7.908;2023-08-01T05:45:42;19.90;99.90
48836;DHT22;62581;47.342;7.908;2023-08-01T05:48:09;19.90;99.90
48836;DHT22;62581;47.342;7.908;2023-08-01T05:50:36;19.90;99.90
48836;DHT22;62581;47.342;7.908;2023-08-01T05:53:03;19.90;99.90
48836;DHT22;62581;47.342;7.908;2023-08-01T05:55:31;19.80;99.90
48836;DHT22;62581;47.342;7.908;2023-08-01T05:57:58;19.80;99.90
48836;DHT22;62581;47.342;7.908;2023-08-01T06:00:25;19.80;99.90
48836;DHT22;62581;47.342;7.908;2023-08-01T06:02:51;19.70;99.90
48836;DHT22;62581;47.342;7.908;2023-08-01T06:05:18;19.70;99.90
48836;DHT22;62581;47.342;7.908;2023-08-01T06:07:45;19.70;99.90
48836;DHT22;62581;47.342;7.908;2023-08-01T06:10:12;19.70;99.90
48836;DHT22;62581;47.342;7.908;2023-08-01T06:12:40;19.70;99.90
48836;DHT22;62581;47.342;7.908;2023-08-01T06:15:07;19.60;99.90
48836;DHT22;62581;47.342;7.908;2023-08-01T06:17:34;19.40;99.90
48836;DHT22;62581;47.342;7.908;2023-08-01T06:20:00;19.30;99.90
48836;DHT22;62581;47.342;7.908;2023-08-01T06:22:29;19.20;99.90
48836;DHT22;62581;47.342;7.908;2023-08-01T06:24:56;19.00;99.90
48836;DHT22;62581;47.342;7.908;2023-08-01T06:27:23;19.00;99.90
48836;DHT22;62581;47.342;7.908;2023-08-01T06:29:51;18.80;99.90
48836;DHT22;62581;47.342;7.908;2023-08-01T06:32:18;18.70;99.90
48836;DHT22;62581;47.342;7.908;2023-08-01T06:34:45;18.70;99.90
48836;DHT22;62581;47.342;7.908;2023-08-01T06:37:11;18.60;99.90
48836;DHT22;62581;47.342;7.908;2023-08-01T06:39:38;18.60;99.90
48836;DHT22;62581;47.342;7.908;2023-08-01T06:42:05;18.50;99.90
48836;DHT22;62581;47.342;7.908;2023-08-01T06:44:32;18.40;99.90
48836;DHT22;62581;47.342;7.908;2023-08-01T06:47:00;18.30;99.90
48836;DHT22;62581;47.342;7.908;2023-08-01T06:49:27;18.30;99.90
48836;DHT22;62581;47.342;7.908;2023-08-01T06:51:53;18.30;99.90
48836;DHT22;62581;47.342;7.908;2023-08-01T06:54:20;18.20;99.90
48836;DHT22;62581;47.342;7.908;2023-08-01T06:56:47;18.20;99.90
48836;DHT22;62581;47.342;7.908;2023-08-01T06:59:14;18.10;99.90
48836;DHT22;62581;47.342;7.908;2023-08-01T07:01:40;18.00;99.90
48836;DHT22;62581;47.342;7.908;2023-08-01T07:04:10;18.00;99.90
48836;DHT22;62581;47.342;7.908;2023-08-01T07:06:37;17.90;99.90
48836;DHT22;62581;47.342;7.908;2023-08-01T07:09:03;17.90;99.90
48836;DHT22;62581;47.342;7.908;2023-08-01T07:11:30;18.00;99.90
48836;DHT22;62581;47.342;7.908;2023-08-01T07:13:57;17.90;99.90
48836;DHT22;62581;47.342;7.908;2023-08-01T07:16:24;17.90;99.90
48836;DHT22;62581;47.342;7.908;2023-08-01T07:18:50;17.90;99.90
48836;DHT22;62581;47.342;7.908;2023-08-01T07:21:18;17.90;99.90
48836;DHT22;62581;47.342;7.908;2023-08-01T07:23:45;18.00;99.90
48836;DHT22;62581;47.342;7.908;2023-08-01T07:26:13;18.00;99.90
48836;DHT22;62581;47.342;7.908;2023-08-01T07:28:40;18.00;99.90
48836;DHT22;62581;47.342;7.908;2023-08-01T07:31:07;18.00;99.90
48836;DHT22;62581;47.342;7.908;2023-08-01T07:33:34;18.00;99.90
48836;DHT22;62581;47.342;7.908;2023-08-01T07:36:01;18.10;99.90
48836;DHT22;62581;47.342;7.908;2023-08-01T07:38:29;18.10;99.90
48836;DHT22;62581;47.342;7.908;2023-08-01T07:40:57;18.20;99.90
48836;DHT22;62581;47.342;7.908;2023-08-01T07:43:25;18.40;99.90
48836;DHT22;62581;47.342;7.908;2023-08-01T07:45:54;18.40;99.90
48836;DHT22;62581;47.342;7.908;2023-08-01T07:48:21;18.30;99.90
48836;DHT22;62581;47.342;7.908;2023-08-01T07:50:48;18.30;99.90
48836;DHT22;62581;47.342;7.908;2023-08-01T07:53:15;18.20;99.90
48836;DHT22;62581;47.342;7.908;2023-08-01T07:55:43;18.10;99.90
48836;DHT22;62581;47.342;7.908;2023-08-01T07:58:10;18.00;99.90
48836;DHT22;62581;47.342;7.908;2023-08-01T08:00:36;17.90;99.90
48836;DHT22;62581;47.342;7.908;2023-08-01T08:03:04;17.80;99.90
48836;DHT22;62581;47.342;7.908;2023-08-01T08:05:33;17.80;99.90
48836;DHT22;62581;47.342;7.908;2023-08-01T08:08:03;17.70;99.90
48836;DHT22;62581;47.342;7.908;2023-08-01T08:10:30;17.70;99.90
48836;DHT22;62581;47.342;7.908;2023-08-01T08:12:58;17.80;99.90
48836;DHT22;62581;47.342;7.908;2023-08-01T08:15:25;17.70;99.90
48836;DHT22;62581;47.342;7.908;2023-08-01T08:17:52;17.80;99.90
48836;DHT22;62581;47.342;7.908;2023-08-01T08:20:19;17.70;99.90
48836;DHT22;62581;47.342;7.908;2023-08-01T08:22:45;17.70;99.90
48836;DHT22;62581;47.342;7.908;2023-08-01T08:25:12;17.70;99.90
48836;DHT22;62581;47.342;7.908;2023-08-01T08:27:39;17.70;99.90
48836;DHT22;62581;47.342;7.908;2023-08-01T08:30:07;17.70;99.90
48836;DHT22;62581;47.342;7.908;2023-08-01T08:32:35;17.60;99.90
48836;DHT22;62581;47.342;7.908;2023-08-01T08:35:01;17.80;99.90
48836;DHT22;62581;47.342;7.908;2023-08-01T08:37:28;17.70;99.90
48836;DHT22;62581;47.342;7.908;2023-08-01T08:39:55;17.70;99.90
48836;DHT22;62581;47.342;7.908;2023-08-01T08:42:22;17.70;99.90
48836;DHT22;62581;47.342;7.908;2023-08-01T08:44:50;17.70;99.90
48836;DHT22;62581;47.342;7.908;2023-08-01T08:47:22;17.70;99.90
48836;DHT22;62581;47.342;7.908;2023-08-01T08:49:51;17.60;99.90
48836;DHT22;62581;47.342;7.908;2023-08-01T08:52:18;17.60;99.90
48836;DHT22;62581;47.342;7.908;2023-08-01T08:54:45;17.60;99.90
48836;DHT22;62581;47.342;7.908;2023-08-01T08:57:12;17.60;99.90
48836;DHT22;62581;47.342;7.908;2023-08-01T08:59:40;17.60;99.90
48836;DHT22;62581;47.342;7.908;2023-08-01T09:02:07;17.60;99.90
48836;DHT22;62581;47.342;7.908;2023-08-01T09:04:35;17.70;99.90
48836;DHT22;62581;47.342;7.908;2023-08-01T09:07:02;17.80;99.90
48836;DHT22;62581;47.342;7.908;2023-08-01T09:09:31;18.00;99.90
48836;DHT22;62581;47.342;7.908;2023-08-01T09:11:59;18.30;99.90
48836;DHT22;62581;47.342;7.908;2023-08-01T09:14:26;18.40;99.90
48836;DHT22;62581;47.342;7.908;2023-08-01T09:16:52;18.60;99.90
48836;DHT22;62581;47.342;7.908;2023-08-01T09:19:20;18.80;99.90
48836;DHT22;62581;47.342;7.908;2023-08-01T09:21:48;18.90;99.90
48836;DHT22;62581;47.342;7.908;2023-08-01T09:24:16;19.10;99.90
48836;DHT22;62581;47.342;7.908;2023-08-01T09:26:44;19.10;99.90
48836;DHT22;62581;47.342;7.908;2023-08-01T09:29:11;19.10;99.90
48836;DHT22;62581;47.342;7.908;2023-08-01T09:31:38;19.10;99.90
48836;DHT22;62581;47.342;7.908;2023-08-01T09:34:06;19.10;99.90
48836;DHT22;62581;47.342;7.908;2023-08-01T09:36:33;19.10;99.90
48836;DHT22;62581;47.342;7.908;2023-08-01T09:39:02;19.10;99.90
48836;DHT22;62581;47.342;7.908;2023-08-01T09:41:29;19.00;99.90
48836;DHT22;62581;47.342;7.908;2023-08-01T09:43:56;18.90;99.90
48836;DHT22;62581;47.342;7.908;2023-08-01T09:46:23;18.70;99.90
48836;DHT22;62581;47.342;7.908;2023-08-01T09:48:50;18.60;99.90
48836;DHT22;62581;47.342;7.908;2023-08-01T09:51:18;18.50;99.90
48836;DHT22;62581;47.342;7.908;2023-08-01T09:53:48;18.30;99.90
48836;DHT22;62581;47.342;7.908;2023-08-01T09:56:17;18.20;99.90
48836;DHT22;62581;47.342;7.908;2023-08-01T09:58:45;18.10;99.90
48836;DHT22;62581;47.342;7.908;2023-08-01T10:01:12;17.90;99.90
48836;DHT22;62581;47.342;7.908;2023-08-01T10:03:40;17.80;99.90
48836;DHT22;62581;47.342;7.908;2023-08-01T10:06:08;17.80;99.90
48836;DHT22;62581;47.342;7.908;2023-08-01T10:08:34;17.80;99.90
48836;DHT22;62581;47.342;7.908;2023-08-01T10:11:04;17.80;99.90
48836;DHT22;62581;47.342;7.908;2023-08-01T10:13:32;17.80;99.90
48836;DHT22;62581;47.342;7.908;2023-08-01T10:15:59;17.90;99.90
48836;DHT22;62581;47.342;7.908;2023-08-01T10:18:26;17.90;99.90
48836;DHT22;62581;47.342;7.908;2023-08-01T10:20:54;17.90;99.90
48836;DHT22;62581;47.342;7.908;2023-08-01T10:23:21;18.00;99.90
48836;DHT22;62581;47.342;7.908;2023-08-01T10:25:49;18.10;99.90
48836;DHT22;62581;47.342;7.908;2023-08-01T10:28:16;18.20;99.90
48836;DHT22;62581;47.342;7.908;2023-08-01T10:30:44;18.30;99.90
48836;DHT22;62581;47.342;7.908;2023-08-01T10:33:11;18.30;99.90
48836;DHT22;62581;47.342;7.908;2023-08-01T10:35:39;18.30;99.90
48836;DHT22;62581;47.342;7.908;2023-08-01T10:38:07;18.30;99.90
48836;DHT22;62581;47.342;7.908;2023-08-01T10:40:34;18.30;99.90
48836;DHT22;62581;47.342;7.908;2023-08-01T10:43:01;18.30;99.90
48836;DHT22;62581;47.342;7.908;2023-08-01T10:45:28;18.30;99.90
48836;DHT22;62581;47.342;7.908;2023-08-01T10:48:07;18.30;99.90
48836;DHT22;62581;47.342;7.908;2023-08-01T10:50:33;18.30;99.90
48836;DHT22;62581;47.342;7.908;2023-08-01T10:53:02;18.30;99.90
48836;DHT22;62581;47.342;7.908;2023-08-01T10:55:37;18.40;99.90
48836;DHT22;62581;47.342;7.908;2023-08-01T10:58:04;18.50;99.90
48836;DHT22;62581;47.342;7.908;2023-08-01T11:00:31;18.50;99.90
48836;DHT22;62581;47.342;7.908;2023-08-01T11:02:58;18.50;99.90
48836;DHT22;62581;47.342;7.908;2023-08-01T11:05:26;18.50;99.90
48836;DHT22;62581;47.342;7.908;2023-08-01T11:07:54;18.40;99.90
48836;DHT22;62581;47.342;7.908;2023-08-01T11:10:21;18.40;99.90
48836;DHT22;62581;47.342;7.908;2023-08-01T11:12:48;18.40;99.90
48836;DHT22;62581;47.342;7.908;2023-08-01T11:15:15;18.40;99.90
48836;DHT22;62581;47.342;7.908;2023-08-01T11:17:42;18.40;99.90
48836;DHT22;62581;47.342;7.908;2023-08-01T11:20:10;18.40;99.90
48836;DHT22;62581;47.342;7.908;2023-08-01T11:22:48;18.30;99.90
48836;DHT22;62581;47.342;7.908;2023-08-01T11:25:15;18.30;99.90
48836;DHT22;62581;47.342;7.908;2023-08-01T11:27:42;18.20;99.90
48836;DHT22;62581;47.342;7.908;2023-08-01T11:30:09;18.30;99.90
48836;DHT22;62581;47.342;7.908;2023-08-01T11:32:36;18.30;99.90
48836;DHT22;62581;47.342;7.908;2023-08-01T11:35:04;18.30;99.90
48836;DHT22;62581;47.342;7.908;2023-08-01T11:37:31;18.40;99.90
48836;DHT22;62581;47.342;7.908;2023-08-01T11:40:00;18.30;99.90
48836;DHT22;62581;47.342;7.908;2023-08-01T11:42:30;18.30;99.90
48836;DHT22;62581;47.342;7.908;2023-08-01T11:45:07;18.40;99.90
48836;DHT22;62581;47.342;7.908;2023-08-01T11:47:34;18.40;99.90
48836;DHT22;62581;47.342;7.908;2023-08-01T11:50:00;18.50;99.90
48836;DHT22;62581;47.342;7.908;2023-08-01T11:52:28;18.80;99.90
48836;DHT22;62581;47.342;7.908;2023-08-01T11:54:56;19.00;99.90
48836;DHT22;62581;47.342;7.908;2023-08-01T11:57:24;19.30;99.90
48836;DHT22;62581;47.342;7.908;2023-08-01T11:59:52;19.50;99.90
48836;DHT22;62581;47.342;7.908;2023-08-01T12:02:22;19.70;99.90
48836;DHT22;62581;47.342;7.908;2023-08-01T12:04:49;19.70;99.90
48836;DHT22;62581;47.342;7.908;2023-08-01T12:07:16;19.90;99.90
48836;DHT22;62581;47.342;7.908;2023-08-01T12:09:43;19.80;99.90
48836;DHT22;62581;47.342;7.908;2023-08-01T12:12:10;19.60;99.90
48836;DHT22;62581;47.342;7.908;2023-08-01T12:14:40;19.60;99.90
48836;DHT22;62581;47.342;7.908;2023-08-01T12:17:07;19.50;99.90
48836;DHT22;62581;47.342;7.908;2023-08-01T12:19:34;19.50;99.90
48836;DHT22;62581;47.342;7.908;2023-08-01T12:22:00;19.50;99.90
48836;DHT22;62581;47.342;7.908;2023-08-01T12:24:27;19.60;99.90
48836;DHT22;62581;47.342;7.908;2023-08-01T12:26:54;19.80;99.90
48836;DHT22;62581;47.342;7.908;2023-08-01T12:29:21;20.00;99.90
48836;DHT22;62581;47.342;7.908;2023-08-01T12:31:49;20.40;99.90
48836;DHT22;62581;47.342;7.908;2023-08-01T12:34:16;20.50;99.90
48836;DHT22;62581;47.342;7.908;2023-08-01T12:36:42;20.90;99.90
48836;DHT22;62581;47.342;7.908;2023-08-01T12:39:09;21.20;99.90
48836;DHT22;62581;47.342;7.908;2023-08-01T12:41:36;21.30;99.90
48836;DHT22;62581;47.342;7.908;2023-08-01T12:44:03;21.40;99.90
48836;DHT22;62581;47.342;7.908;2023-08-01T12:46:30;21.30;99.90
48836;DHT22;62581;47.342;7.908;2023-08-01T12:48:58;21.10;99.90
48836;DHT22;62581;47.342;7.908;2023-08-01T12:51:25;21.00;99.90
48836;DHT22;62581;47.342;7.908;2023-08-01T12:53:51;20.80;99.90
48836;DHT22;62581;47.342;7.908;2023-08-01T12:56:18;20.40;99.90
48836;DHT22;62581;47.342;7.908;2023-08-01T12:58:45;20.30;99.90
48836;DHT22;62581;47.342;7.908;2023-08-01T13:01:12;20.20;99.90
48836;DHT22;62581;47.342;7.908;2023-08-01T13:03:38;20.20;99.90
48836;DHT22;62581;47.342;7.908;2023-08-01T13:06:09;20.10;99.90
48836;DHT22;62581;47.342;7.908;2023-08-01T13:08:36;19.80;99.90
48836;DHT22;62581;47.342;7.908;2023-08-01T13:11:09;19.60;99.90
48836;DHT22;62581;47.342;7.908;2023-08-01T13:13:36;19.40;99.90
48836;DHT22;62581;47.342;7.908;2023-08-01T13:16:02;19.30;99.90
48836;DHT22;62581;47.342;7.908;2023-08-01T13:18:29;19.30;99.90
48836;DHT22;62581;47.342;7.908;2023-08-01T13:20:56;19.20;99.90
48836;DHT22;62581;47.342;7.908;2023-08-01T13:23:24;19.30;99.90
48836;DHT22;62581;47.342;7.908;2023-08-01T13:25:51;19.30;99.90
48836;DHT22;62581;47.342;7.908;2023-08-01T13:28:18;19.20;99.90
48836;DHT22;62581;47.342;7.908;2023-08-01T13:30:44;19.00;99.90
48836;DHT22;62581;47.342;7.908;2023-08-01T13:33:11;19.20;99.90
48836;DHT22;62581;47.342;7.908;2023-08-01T13:35:38;19.80;99.90
48836;DHT22;62581;47.342;7.908;2023-08-01T13:38:05;21.40;99.90
48836;DHT22;62581;47.342;7.908;2023-08-01T13:40:34;22.00;99.90
48836;DHT22;62581;47.342;7.908;2023-08-01T13:43:01;23.20;99.90
48836;DHT22;62581;47.342;7.908;2023-08-01T13:45:29;24.70;99.90
48836;DHT22;62581;47.342;7.908;2023-08-01T13:47:56;25.10;99.90
48836;DHT22;62581;47.342;7.908;2023-08-01T13:50:23;24.30;99.90
48836;DHT22;62581;47.342;7.908;2023-08-01T13:52:49;23.30;99.90
48836;DHT22;62581;47.342;7.908;2023-08-01T13:55:16;22.40;99.90
48836;DHT22;62581;47.342;7.908;2023-08-01T13:57:45;21.50;99.90
48836;DHT22;62581;47.342;7.908;2023-08-01T14:00:12;21.00;99.90
48836;DHT22;62581;47.342;7.908;2023-08-01T14:02:39;20.60;99.90
48836;DHT22;62581;47.342;7.908;2023-08-01T14:05:06;20.30;99.90
48836;DHT22;62581;47.342;7.908;2023-08-01T14:07:34;20.00;99.90
48836;DHT22;62581;47.342;7.908;2023-08-01T14:10:01;19.70;99.90
48836;DHT22;62581;47.342;7.908;2023-08-01T14:12:27;19.60;99.90
48836;DHT22;62581;47.342;7.908;2023-08-01T14:14:56;19.40;99.90
48836;DHT22;62581;47.342;7.908;2023-08-01T14:17:22;19.30;99.90
48836;DHT22;62581;47.342;7.908;2023-08-01T14:19:49;19.10;99.90
48836;DHT22;62581;47.342;7.908;2023-08-01T14:22:16;19.00;99.90
48836;DHT22;62581;47.342;7.908;2023-08-01T14:24:43;18.90;99.90
48836;DHT22;62581;47.342;7.908;2023-08-01T14:27:09;18.70;99.90
48836;DHT22;62581;47.342;7.908;2023-08-01T14:29:36;18.70;99.90
48836;DHT22;62581;47.342;7.908;2023-08-01T14:32:05;19.00;99.90
48836;DHT22;62581;47.342;7.908;2023-08-01T14:34:32;19.20;99.90
48836;DHT22;62581;47.342;7.908;2023-08-01T14:36:58;19.40;99.90
48836;DHT22;62581;47.342;7.908;2023-08-01T14:39:25;19.70;99.90
48836;DHT22;62581;47.342;7.908;2023-08-01T14:41:52;19.80;99.90
48836;DHT22;62581;47.342;7.908;2023-08-01T14:44:18;20.10;99.90
48836;DHT22;62581;47.342;7.908;2023-08-01T14:46:45;20.50;99.90
48836;DHT22;62581;47.342;7.908;2023-08-01T14:49:14;20.80;99.90
48836;DHT22;62581;47.342;7.908;2023-08-01T14:51:41;20.80;99.90
48836;DHT22;62581;47.342;7.908;2023-08-01T14:54:08;20.60;99.90
48836;DHT22;62581;47.342;7.908;2023-08-01T14:56:35;20.40;99.90
48836;DHT22;62581;47.342;7.908;2023-08-01T14:59:01;20.40;99.90
48836;DHT22;62581;47.342;7.908;2023-08-01T15:01:28;20.10;99.90
48836;DHT22;62581;47.342;7.908;2023-08-01T15:03:55;20.00;99.90
48836;DHT22;62581;47.342;7.908;2023-08-01T15:06:23;19.90;99.90
48836;DHT22;62581;47.342;7.908;2023-08-01T15:08:51;20.00;99.90
48836;DHT22;62581;47.342;7.908;2023-08-01T15:11:18;20.40;99.90
48836;DHT22;62581;47.342;7.908;2023-08-01T15:13:45;20.90;99.90
48836;DHT22;62581;47.342;7.908;2023-08-01T15:16:11;21.70;99.90
48836;DHT22;62581;47.342;7.908;2023-08-01T15:18:39;22.70;99.90
48836;DHT22;62581;47.342;7.908;2023-08-01T15:21:06;24.00;99.90
48836;DHT22;62581;47.342;7.908;2023-08-01T15:23:34;24.50;99.90
48836;DHT22;62581;47.342;7.908;2023-08-01T15:26:01;23.90;99.90
48836;DHT22;62581;47.342;7.908;2023-08-01T15:28:27;23.20;99.90